createdAt,value
2017-07-14T07:38:03.518Z,16.7
2017-07-14T07:39:08.498Z,16.8
2017-07-14T07:40:13.683Z,16.7
2017-07-14T07:41:18.093Z,16.8
2017-07-14T07:47:25.599Z,17.0
2017-07-14T07:48:29.373Z,17.1
2017-07-14T07:49:32.252Z,17.1
2017-07-14T07:50:34.288Z,17.1
2017-07-14T07:55:46.768Z,17.2
2017-07-14T07:56:52.471Z,17.3
2017-07-14T07:57:54.378Z,17.4
2017-07-14T07:58:57.151Z,17.3
2017-07-14T08:00:01.976Z,17.5
2017-07-14T08:01:04.161Z,17.4
2017-07-14T08:02:06.203Z,17.4
2017-07-14T08:03:19.798Z,17.5
2017-07-14T08:04:32.598Z,17.4
2017-07-14T08:05:35.739Z,17.5
2017-07-14T08:06:38.325Z,17.5
2017-07-14T08:07:40.405Z,17.6
2017-07-14T08:08:42.321Z,17.6
2017-07-14T08:09:44.693Z,17.6
2017-07-14T08:10:46.891Z,17.7
2017-07-14T08:11:49.301Z,17.7
2017-07-14T08:12:52.036Z,17.7
2017-07-14T08:13:54.233Z,17.9
2017-07-14T08:14:56.239Z,17.9
2017-07-14T08:15:58.348Z,18.0
2017-07-14T08:24:13.083Z,18.3
2017-07-14T08:25:16.501Z,18.4
2017-07-14T08:26:21.602Z,18.4
2017-07-14T08:27:23.661Z,18.4
2017-07-14T08:28:25.805Z,18.5
2017-07-14T08:29:31.104Z,18.5
2017-07-14T08:30:33.816Z,18.6
2017-07-14T08:31:52.352Z,18.6
2017-07-14T08:32:59.744Z,18.7
2017-07-14T08:34:03.396Z,18.7
2017-07-14T08:35:06.857Z,18.8
2017-07-14T08:36:09.506Z,18.8
2017-07-14T08:37:11.477Z,18.8
2017-07-14T08:38:13.530Z,18.9
2017-07-14T08:39:17.361Z,18.9
2017-07-14T08:40:20.094Z,18.9
2017-07-14T08:41:23.517Z,18.9
2017-07-14T08:42:25.912Z,19.1
2017-07-14T08:43:28.481Z,19.1
2017-07-14T08:44:30.584Z,19.2
2017-07-14T08:45:41.216Z,19.2
2017-07-14T08:46:44.825Z,19.4
2017-07-14T08:47:50.023Z,19.4
2017-07-14T08:48:52.205Z,19.5
2017-07-14T08:49:54.860Z,19.5
2017-07-14T08:50:57.944Z,19.4
2017-07-14T08:51:59.876Z,19.5
2017-07-14T08:53:09.633Z,19.6
2017-07-14T08:54:11.820Z,19.7
2017-07-14T08:55:14.087Z,19.7
2017-07-14T08:56:17.759Z,19.7
2017-07-14T08:57:21.428Z,19.8
2017-07-14T08:58:25.028Z,19.7
2017-07-14T08:59:29.304Z,19.7
2017-07-14T09:00:31.501Z,19.7
2017-07-14T09:01:34.326Z,19.6
2017-07-14T09:02:36.465Z,19.7
2017-07-14T09:03:39.067Z,19.6
2017-07-14T09:04:41.638Z,19.6
2017-07-14T09:05:43.521Z,19.6
2017-07-14T09:06:46.526Z,19.6
2017-07-14T09:07:48.540Z,19.5
2017-07-14T09:08:53.940Z,19.5
2017-07-14T09:09:57.553Z,19.5
2017-07-14T09:10:59.711Z,19.6
2017-07-14T09:12:01.884Z,19.6
2017-07-14T09:13:03.790Z,19.6
2017-07-14T09:14:05.714Z,19.6
2017-07-14T09:15:09.661Z,19.7
2017-07-14T09:16:13.016Z,19.7
2017-07-14T09:17:16.746Z,19.8
2017-07-14T09:18:27.542Z,19.8
2017-07-14T09:19:33.724Z,19.9
2017-07-14T09:20:36.142Z,19.9
2017-07-14T09:21:38.765Z,20.0
2017-07-14T09:22:41.570Z,20.0
2017-07-14T09:23:44.671Z,20.0
2017-07-14T09:24:47.358Z,20.0
2017-07-14T09:25:49.385Z,20.0
2017-07-14T09:26:51.371Z,20.1
2017-07-14T09:27:53.902Z,20.1
2017-07-14T09:28:55.970Z,20.1
2017-07-14T09:29:58.013Z,20.1
2017-07-14T09:31:00.086Z,20.3
2017-07-14T09:32:02.069Z,20.2
2017-07-14T09:33:05.127Z,20.2
2017-07-14T09:34:07.063Z,20.2
2017-07-14T09:35:08.997Z,20.2
2017-07-14T09:36:11.218Z,20.2
2017-07-14T09:37:13.231Z,20.2
2017-07-14T09:38:15.542Z,20.3
2017-07-14T09:39:18.521Z,20.3
2017-07-14T09:40:20.468Z,20.3
2017-07-14T09:41:24.057Z,20.4
2017-07-14T09:42:27.008Z,20.4
2017-07-14T09:43:41.839Z,20.4
2017-07-14T09:44:43.966Z,20.4
2017-07-14T09:45:45.945Z,20.5
2017-07-14T09:46:52.495Z,20.5
2017-07-14T09:47:56.075Z,20.6
2017-07-14T09:48:59.246Z,20.6
2017-07-14T09:50:02.052Z,20.7
2017-07-14T09:51:03.977Z,20.6
2017-07-14T09:52:06.565Z,20.7
2017-07-14T09:53:10.737Z,20.9
2017-07-14T09:54:12.980Z,21.2
2017-07-14T09:55:14.995Z,21.2
2017-07-14T09:56:17.389Z,21.5
2017-07-14T09:57:19.632Z,21.5
2017-07-14T09:58:23.390Z,21.6
2017-07-14T09:59:26.725Z,21.8
2017-07-14T10:00:30.239Z,21.7
2017-07-14T10:01:32.969Z,21.8
2017-07-14T10:02:35.014Z,21.8
2017-07-14T10:03:37.053Z,21.8
2017-07-14T10:04:41.029Z,21.9
2017-07-14T10:07:08.703Z,22.3
2017-07-14T10:08:10.830Z,22.4
2017-07-14T10:09:12.677Z,22.4
2017-07-14T10:10:14.958Z,22.6
2017-07-14T10:11:16.843Z,22.6
2017-07-14T10:12:18.663Z,22.8
2017-07-14T10:13:20.566Z,22.9
2017-07-14T10:14:22.576Z,23.1
2017-07-14T10:15:26.443Z,23.2
2017-07-14T10:16:28.466Z,23.3
2017-07-14T10:17:32.142Z,23.2
2017-07-14T10:18:37.159Z,23.1
2017-07-14T10:19:39.082Z,23.0
2017-07-14T10:20:41.576Z,23.0
2017-07-14T10:21:46.642Z,22.9
2017-07-14T10:22:56.579Z,22.9
2017-07-14T10:23:58.662Z,22.7
2017-07-14T10:25:03.830Z,22.6
2017-07-14T10:26:10.320Z,22.3
2017-07-14T10:27:13.346Z,22.2
2017-07-14T10:28:16.508Z,22.1
2017-07-14T10:29:18.324Z,21.9
2017-07-14T10:30:20.832Z,21.7
2017-07-14T10:31:22.886Z,21.5
2017-07-14T10:32:24.855Z,21.5
2017-07-14T10:33:26.642Z,21.5
2017-07-14T10:34:28.635Z,21.7
2017-07-14T10:35:30.376Z,21.8
2017-07-14T10:36:32.609Z,22.1
2017-07-14T10:37:36.095Z,22.1
2017-07-14T10:38:38.583Z,22.3
2017-07-14T10:39:40.504Z,22.6
2017-07-14T10:40:42.478Z,22.9
2017-07-14T10:41:44.979Z,23.2
2017-07-14T10:42:46.914Z,23.5
2017-07-14T10:43:48.784Z,24.0
2017-07-14T10:44:50.797Z,24.5
2017-07-14T10:45:52.825Z,25.0
2017-07-14T10:46:55.234Z,25.3
2017-07-14T10:48:40.715Z,24.9
2017-07-14T10:49:43.068Z,24.6
2017-07-14T10:50:44.985Z,24.4
2017-07-14T10:51:47.676Z,24.4
2017-07-14T10:52:49.883Z,24.6
2017-07-14T10:53:53.876Z,24.8
2017-07-14T10:54:56.400Z,25.0
2017-07-14T10:56:00.482Z,25.2
2017-07-14T10:57:03.126Z,25.4
2017-07-14T10:58:06.132Z,25.7
2017-07-14T10:59:08.842Z,26.0
2017-07-14T11:00:10.802Z,26.4
2017-07-14T11:01:12.755Z,27.0
2017-07-14T11:02:14.671Z,27.4
2017-07-14T11:03:17.769Z,27.8
2017-07-14T11:04:19.645Z,27.8
2017-07-14T11:05:21.852Z,28.3
2017-07-14T11:06:24.819Z,28.7
2017-07-14T11:07:26.816Z,29.0
2017-07-14T11:08:29.254Z,29.1
2017-07-14T11:09:31.487Z,29.0
2017-07-14T11:10:33.449Z,28.7
2017-07-14T11:11:35.310Z,28.3
2017-07-14T11:12:37.299Z,28.2
2017-07-14T11:13:39.387Z,28.1
2017-07-14T11:14:41.755Z,28.0
2017-07-14T11:15:43.922Z,27.9
2017-07-14T11:16:46.625Z,27.6
2017-07-14T11:17:48.697Z,27.5
2017-07-14T11:18:51.016Z,27.3
2017-07-14T11:19:53.941Z,27.4
2017-07-14T11:20:55.831Z,27.4
2017-07-14T11:21:58.096Z,27.4
2017-07-14T11:23:00.065Z,27.4
2017-07-14T11:24:03.697Z,27.7
2017-07-14T11:25:05.827Z,27.7
2017-07-14T11:26:07.660Z,27.7
2017-07-14T11:27:09.739Z,27.9
2017-07-14T11:28:15.843Z,28.0
2017-07-14T11:29:18.025Z,28.1
2017-07-14T11:30:19.792Z,28.3
2017-07-14T11:31:21.607Z,28.5
2017-07-14T11:32:23.464Z,28.6
2017-07-14T11:33:26.300Z,28.6
2017-07-14T11:34:28.828Z,28.6
2017-07-14T11:35:30.792Z,28.5
2017-07-14T11:36:33.731Z,28.3
2017-07-14T11:37:36.415Z,28.4
2017-07-14T11:38:41.614Z,28.7
2017-07-14T11:39:43.920Z,28.9
2017-07-14T11:40:46.246Z,29.2
2017-07-14T11:41:47.983Z,29.5
2017-07-14T11:42:50.378Z,29.7
2017-07-14T11:43:52.251Z,29.7
2017-07-14T11:44:54.346Z,30.0
2017-07-14T11:45:56.253Z,30.3
2017-07-14T11:46:58.263Z,30.7
2017-07-14T11:48:01.057Z,30.6
2017-07-14T11:49:02.795Z,30.2
2017-07-14T11:50:05.963Z,29.7
2017-07-14T11:51:08.071Z,29.6
2017-07-14T11:52:09.917Z,29.6
2017-07-14T11:53:11.746Z,29.9
2017-07-14T11:54:13.541Z,30.1
2017-07-14T11:55:15.905Z,30.0
2017-07-14T11:56:18.001Z,29.6
2017-07-14T11:57:20.116Z,29.3
2017-07-14T11:58:22.098Z,28.9
2017-07-14T11:59:23.819Z,28.3
2017-07-14T12:00:25.871Z,27.9
2017-07-14T12:01:27.743Z,27.4
2017-07-14T12:02:30.727Z,27.0
2017-07-14T12:03:32.631Z,26.5
2017-07-14T12:04:35.323Z,26.1
2017-07-14T12:05:37.853Z,25.8
2017-07-14T12:06:40.168Z,25.5
2017-07-14T12:07:42.164Z,25.2
2017-07-14T12:08:44.184Z,25.0
2017-07-14T12:09:45.995Z,24.8
2017-07-14T12:10:48.213Z,24.7
2017-07-14T12:11:49.966Z,24.4
2017-07-14T12:12:51.831Z,24.2
2017-07-14T12:13:54.157Z,24.1
2017-07-14T12:14:56.009Z,24.0
2017-07-14T12:15:58.174Z,23.7
2017-07-14T12:17:02.026Z,23.6
2017-07-14T12:18:03.994Z,23.3
2017-07-14T12:19:06.186Z,23.3
2017-07-14T12:20:08.055Z,23.2
2017-07-14T12:21:11.426Z,23.1
2017-07-14T12:22:13.704Z,22.8
2017-07-14T12:23:17.807Z,22.7
2017-07-14T12:24:20.564Z,22.6
2017-07-14T12:25:23.548Z,22.4
2017-07-14T12:26:31.913Z,22.3
2017-07-14T12:27:35.909Z,22.2
2017-07-14T12:28:40.026Z,22.1
2017-07-14T12:29:42.124Z,22.0
2017-07-14T12:32:51.089Z,22.0
2017-07-14T12:33:55.388Z,22.0
2017-07-14T12:34:59.651Z,22.1
2017-07-14T12:36:01.428Z,21.9
2017-07-14T12:37:03.528Z,21.9
2017-07-14T12:38:19.403Z,21.9
2017-07-14T12:39:22.841Z,21.9
2017-07-14T12:40:24.970Z,21.8
2017-07-14T12:45:05.529Z,21.6
2017-07-14T12:46:53.658Z,21.5
2017-07-14T12:47:56.190Z,21.5
2017-07-14T12:50:36.972Z,21.5
2017-07-14T12:54:22.613Z,21.2
2017-07-14T12:55:28.908Z,21.1
2017-07-14T12:56:32.119Z,21.1
2017-07-14T12:57:34.005Z,21.1
2017-07-14T12:58:36.257Z,21.0
2017-07-14T12:59:38.177Z,21.0
2017-07-14T13:00:41.519Z,21.0
2017-07-14T13:01:46.098Z,20.9
2017-07-14T13:02:49.879Z,20.8
2017-07-14T13:03:52.540Z,20.9
2017-07-14T13:04:54.479Z,20.9
2017-07-14T13:05:56.360Z,20.9
2017-07-14T13:06:58.665Z,20.9
2017-07-14T13:08:00.486Z,20.9
2017-07-14T13:09:03.072Z,20.8
2017-07-14T13:10:05.081Z,20.8
2017-07-14T13:11:08.921Z,20.9
2017-07-14T13:12:11.664Z,20.8
2017-07-14T13:13:13.640Z,20.8
2017-07-14T13:14:17.387Z,20.9
2017-07-14T13:15:24.468Z,20.8
2017-07-14T13:16:26.734Z,20.9
2017-07-14T13:17:29.306Z,20.8
2017-07-14T13:18:31.498Z,20.8
2017-07-14T13:19:34.563Z,20.7
2017-07-14T13:20:37.166Z,20.8
2017-07-14T13:21:39.093Z,20.8
2017-07-14T13:22:42.217Z,20.7
2017-07-14T13:23:46.317Z,20.7
2017-07-14T13:24:48.336Z,20.7
2017-07-14T13:25:53.494Z,20.7
2017-07-14T13:26:55.511Z,20.7
2017-07-14T13:27:58.532Z,20.7
2017-07-14T13:29:03.013Z,20.8
2017-07-14T13:30:06.904Z,20.7
2017-07-14T13:31:11.399Z,20.7
2017-07-14T13:32:15.315Z,20.7
2017-07-14T13:33:17.729Z,20.7
2017-07-14T13:34:21.390Z,20.6
2017-07-14T13:35:23.400Z,20.7
2017-07-14T13:36:26.635Z,20.5
2017-07-14T13:37:29.260Z,20.5
2017-07-14T13:38:32.499Z,20.5
2017-07-14T13:39:35.029Z,20.3
2017-07-14T13:40:41.567Z,20.3
2017-07-14T13:41:45.020Z,20.0
2017-07-14T13:42:47.541Z,20.0
2017-07-14T13:43:50.495Z,19.9
2017-07-14T13:44:54.852Z,19.9
2017-07-14T13:45:57.098Z,19.9
2017-07-14T13:47:02.929Z,19.9
2017-07-14T13:48:06.467Z,19.7
2017-07-14T13:49:10.301Z,19.7
2017-07-14T13:50:12.807Z,19.7
2017-07-14T13:51:17.100Z,19.6
2017-07-14T13:52:19.413Z,19.6
2017-07-14T13:53:24.295Z,19.6
2017-07-14T13:54:26.293Z,19.6
2017-07-14T13:55:31.433Z,19.5
2017-07-14T13:56:34.630Z,19.5
2017-07-14T13:57:36.983Z,19.5
2017-07-14T13:58:38.994Z,19.5
2017-07-14T13:59:42.870Z,19.6
2017-07-14T14:00:44.875Z,19.6
2017-07-14T14:01:47.688Z,19.7
2017-07-14T14:02:50.145Z,19.7
2017-07-14T14:03:52.021Z,19.7
2017-07-14T14:04:53.807Z,19.8
2017-07-14T14:05:56.109Z,19.8
2017-07-14T14:06:57.766Z,19.8
2017-07-14T14:07:59.841Z,19.7
2017-07-14T14:09:01.587Z,19.9
2017-07-14T14:10:03.389Z,19.9
2017-07-14T14:11:06.032Z,19.9
2017-07-14T14:12:07.733Z,20.0
2017-07-14T14:13:10.289Z,20.0
2017-07-14T14:14:11.961Z,20.1
2017-07-14T14:15:13.789Z,20.1
2017-07-14T14:16:15.564Z,20.1
2017-07-14T14:17:18.305Z,20.3
2017-07-14T14:18:20.461Z,20.4
2017-07-14T14:19:22.896Z,20.3
2017-07-14T14:20:24.558Z,20.3
2017-07-14T14:21:26.407Z,20.3
2017-07-14T14:22:28.295Z,20.4
2017-07-14T14:23:30.373Z,20.4
2017-07-14T14:24:32.549Z,20.4
2017-07-14T14:25:33.862Z,20.3
2017-07-14T14:26:35.577Z,20.4
2017-07-14T14:27:37.408Z,20.4
2017-07-14T14:28:39.661Z,20.4
2017-07-14T14:29:41.346Z,20.4
2017-07-14T14:30:43.045Z,20.4
2017-07-14T14:31:44.777Z,20.4
2017-07-14T14:32:46.527Z,20.3
2017-07-14T14:33:48.744Z,20.4
2017-07-14T14:34:50.509Z,20.4
2017-07-14T14:35:52.356Z,20.4
2017-07-14T14:36:54.148Z,20.5
2017-07-14T14:37:55.998Z,20.4
2017-07-14T14:38:59.531Z,20.4
2017-07-14T14:40:01.284Z,20.4
2017-07-14T14:41:05.330Z,20.5
2017-07-14T14:42:07.152Z,20.5
2017-07-14T14:43:11.540Z,20.5
2017-07-14T14:44:13.855Z,20.5
2017-07-14T14:45:15.829Z,20.6
2017-07-14T14:46:17.617Z,20.6
2017-07-14T14:47:21.164Z,20.6
2017-07-14T14:48:23.573Z,20.6
2017-07-14T14:49:27.114Z,20.7
2017-07-14T14:50:28.921Z,20.7
2017-07-14T14:51:33.037Z,20.7
2017-07-14T14:52:34.808Z,20.6
2017-07-14T14:53:38.821Z,20.6
2017-07-14T14:54:40.699Z,20.6
2017-07-14T14:55:44.769Z,20.7
2017-07-14T14:56:46.760Z,20.5
2017-07-14T14:57:50.764Z,20.5
2017-07-14T14:58:54.451Z,20.3
2017-07-14T14:59:58.337Z,20.2
2017-07-14T15:01:00.278Z,19.8
2017-07-14T15:02:04.307Z,19.6
2017-07-14T15:03:09.526Z,19.2
2017-07-14T16:35:16.334Z,17.2
2017-07-14T17:54:34.043Z,16.9
2017-07-14T17:56:11.271Z,16.8
2017-07-14T17:57:15.075Z,16.7
2017-07-14T17:58:17.523Z,16.7
